sensor_id;sensor_type;location;lat;lon;timestamp;pressure;altitude;pressure_sealevel;temperature;humidity
6343;BME280;3204;42.698;23.298;2023-01-28T00:01:55;94275.56;;;2.75;84.53
6343;BME280;3204;42.698;23.298;2023-01-28T00:04:21;94280.41;;;2.68;85.05
6343;BME280;3204;42.698;23.298;2023-01-28T00:06:46;94278.28;;;2.70;84.63
6343;BME280;3204;42.698;23.298;2023-01-28T00:09:12;94279.88;;;2.71;84.45
6343;BME280;3204;42.698;23.298;2023-01-28T00:11:37;94282.81;;;2.69;84.31
6343;BME280;3204;42.698;23.298;2023-01-28T00:14:03;94287.19;;;2.55;84.51
6343;BME280;3204;42.698;23.298;2023-01-28T00:16:31;94293.84;;;2.58;84.75
6343;BME280;3204;42.698;23.298;2023-01-28T00:18:57;94300.28;;;2.57;84.72
6343;BME280;3204;42.698;23.298;2023-01-28T00:21:22;94304.84;;;2.56;84.65
6343;BME280;3204;42.698;23.298;2023-01-28T00:23:52;94309.94;;;2.53;85.09
6343;BME280;3204;42.698;23.298;2023-01-28T00:26:19;94311.53;;;2.54;84.51
6343;BME280;3204;42.698;23.298;2023-01-28T00:28:45;94303.81;;;2.52;85.17
6343;BME280;3204;42.698;23.298;2023-01-28T00:31:20;94302.78;;;2.43;84.51
6343;BME280;3204;42.698;23.298;2023-01-28T00:33:48;94301.41;;;2.46;85.18
6343;BME280;3204;42.698;23.298;2023-01-28T00:36:14;94309.69;;;2.49;85.47
6343;BME280;3204;42.698;23.298;2023-01-28T00:38:40;94308.38;;;2.47;85.41
6343;BME280;3204;42.698;23.298;2023-01-28T00:41:14;94314.22;;;2.49;84.44
6343;BME280;3204;42.698;23.298;2023-01-28T00:43:40;94316.94;;;2.44;85.44
6343;BME280;3204;42.698;23.298;2023-01-28T00:46:08;94323.34;;;2.48;85.17
6343;BME280;3204;42.698;23.298;2023-01-28T00:48:34;94317.22;;;2.47;85.66
6343;BME280;3204;42.698;23.298;2023-01-28T00:51:00;94322.00;;;2.50;85.64
6343;BME280;3204;42.698;23.298;2023-01-28T00:53:25;94319.03;;;2.52;85.72
6343;BME280;3204;42.698;23.298;2023-01-28T00:55:51;94320.63;;;2.53;85.72
6343;BME280;3204;42.698;23.298;2023-01-28T00:58:18;94321.91;;;2.65;84.87
6343;BME280;3204;42.698;23.298;2023-01-28T01:00:43;94317.66;;;2.59;85.34
6343;BME280;3204;42.698;23.298;2023-01-28T01:03:09;94322.22;;;2.54;85.15
6343;BME280;3204;42.698;23.298;2023-01-28T01:05:34;94324.41;;;2.52;85.48
6343;BME280;3204;42.698;23.298;2023-01-28T01:08:00;94319.03;;;2.52;85.75
6343;BME280;3204;42.698;23.298;2023-01-28T01:10:25;94319.56;;;2.59;85.37
6343;BME280;3204;42.698;23.298;2023-01-28T01:12:51;94321.19;;;2.55;85.76
6343;BME280;3204;42.698;23.298;2023-01-28T01:15:17;94320.63;;;2.53;85.25
6343;BME280;3204;42.698;23.298;2023-01-28T01:17:46;94320.13;;;2.51;85.79
6343;BME280;3204;42.698;23.298;2023-01-28T01:20:21;94326.59;;;2.40;85.25
6343;BME280;3204;42.698;23.298;2023-01-28T01:22:47;94319.59;;;2.49;85.86
6343;BME280;3204;42.698;23.298;2023-01-28T01:25:14;94323.84;;;2.55;85.31
6343;BME280;3204;42.698;23.298;2023-01-28T01:27:40;94326.25;;;2.51;84.84
6343;BME280;3204;42.698;23.298;2023-01-28T01:30:06;94339.41;;;2.43;84.50
6343;BME280;3204;42.698;23.298;2023-01-28T01:32:33;94335.38;;;2.45;85.22
6343;BME280;3204;42.698;23.298;2023-01-28T01:34:59;94332.44;;;2.47;85.07
6343;BME280;3204;42.698;23.298;2023-01-28T01:37:25;94337.31;;;2.40;85.14
6343;BME280;3204;42.698;23.298;2023-01-28T01:39:50;94330.31;;;2.44;85.36
6343;BME280;3204;42.698;23.298;2023-01-28T01:42:16;94341.00;;;2.44;84.53
6343;BME280;3204;42.698;23.298;2023-01-28T01:45:04;94338.34;;;2.44;84.28
6343;BME280;3204;42.698;23.298;2023-01-28T01:50:17;94342.66;;;2.40;84.99
6343;BME280;3204;42.698;23.298;2023-01-28T01:52:49;94335.16;;;2.42;84.62
6343;BME280;3204;42.698;23.298;2023-01-28T01:55:19;94330.91;;;2.36;85.11
6343;BME280;3204;42.698;23.298;2023-01-28T01:57:48;94340.53;;;2.32;85.68
6343;BME280;3204;42.698;23.298;2023-01-28T02:00:16;94337.28;;;2.35;85.38
6343;BME280;3204;42.698;23.298;2023-01-28T02:02:45;94336.53;;;2.29;86.01
6343;BME280;3204;42.698;23.298;2023-01-28T02:05:14;94339.72;;;2.31;85.59
6343;BME280;3204;42.698;23.298;2023-01-28T02:07:40;94335.97;;;2.32;85.66
6343;BME280;3204;42.698;23.298;2023-01-28T02:10:07;94346.34;;;2.44;85.12
6343;BME280;3204;42.698;23.298;2023-01-28T02:12:35;94355.72;;;2.41;85.50
6343;BME280;3204;42.698;23.298;2023-01-28T02:17:30;94354.38;;;2.49;85.07
6343;BME280;3204;42.698;23.298;2023-01-28T02:19:57;94352.78;;;2.48;85.01
6343;BME280;3204;42.698;23.298;2023-01-28T02:31:23;94350.13;;;2.38;85.48
6343;BME280;3204;42.698;23.298;2023-01-28T02:33:59;94354.13;;;2.45;84.78
6343;BME280;3204;42.698;23.298;2023-01-28T02:39:00;94350.41;;;2.36;84.39
6343;BME280;3204;42.698;23.298;2023-01-28T02:41:41;94348.56;;;2.32;84.87
6343;BME280;3204;42.698;23.298;2023-01-28T02:44:08;94363.75;;;2.41;84.08
6343;BME280;3204;42.698;23.298;2023-01-28T02:46:35;94347.47;;;2.38;84.39
6343;BME280;3204;42.698;23.298;2023-01-28T02:51:59;94356.00;;;2.45;83.77
6343;BME280;3204;42.698;23.298;2023-01-28T03:05:34;94362.97;;;2.41;83.98
6343;BME280;3204;42.698;23.298;2023-01-28T03:08:03;94358.19;;;2.28;83.52
6343;BME280;3204;42.698;23.298;2023-01-28T03:10:52;94361.94;;;2.27;83.12
6343;BME280;3204;42.698;23.298;2023-01-28T03:13:37;94355.56;;;2.13;84.58
6343;BME280;3204;42.698;23.298;2023-01-28T03:16:21;94363.03;;;2.11;84.64
6343;BME280;3204;42.698;23.298;2023-01-28T03:19:06;94362.25;;;2.15;84.59
6343;BME280;3204;42.698;23.298;2023-01-28T03:21:51;94368.66;;;2.24;82.91
6343;BME280;3204;42.698;23.298;2023-01-28T03:24:49;94365.44;;;2.12;84.19
6343;BME280;3204;42.698;23.298;2023-01-28T03:27:43;94376.41;;;2.11;84.15
6343;BME280;3204;42.698;23.298;2023-01-28T03:30:39;94372.69;;;2.17;84.86
6343;BME280;3204;42.698;23.298;2023-01-28T03:33:25;94371.34;;;2.09;84.93
6343;BME280;3204;42.698;23.298;2023-01-28T03:36:10;94370.56;;;2.04;85.74
6343;BME280;3204;42.698;23.298;2023-01-28T03:38:54;94371.06;;;2.06;84.93
6343;BME280;3204;42.698;23.298;2023-01-28T03:41:22;94370.28;;;2.05;86.36
6343;BME280;3204;42.698;23.298;2023-01-28T03:43:48;94370.53;;;2.14;86.16
6343;BME280;3204;42.698;23.298;2023-01-28T03:46:14;94365.16;;;2.24;85.00
6343;BME280;3204;42.698;23.298;2023-01-28T03:48:40;94378.56;;;2.14;84.55
6343;BME280;3204;42.698;23.298;2023-01-28T03:51:06;94384.41;;;2.16;84.80
6343;BME280;3204;42.698;23.298;2023-01-28T03:53:31;94384.69;;;2.19;84.67
6343;BME280;3204;42.698;23.298;2023-01-28T03:55:57;94377.19;;;2.26;84.70
6343;BME280;3204;42.698;23.298;2023-01-28T03:58:23;94384.44;;;2.11;84.61
6343;BME280;3204;42.698;23.298;2023-01-28T04:01:11;94383.41;;;2.07;84.96
6343;BME280;3204;42.698;23.298;2023-01-28T04:03:36;94381.00;;;2.00;84.76
6343;BME280;3204;42.698;23.298;2023-01-28T04:06:04;94385.78;;;2.03;85.71
6343;BME280;3204;42.698;23.298;2023-01-28T04:08:30;94391.41;;;2.12;84.60
6343;BME280;3204;42.698;23.298;2023-01-28T04:10:56;94389.25;;;2.09;84.07
6343;BME280;3204;42.698;23.298;2023-01-28T04:13:22;94397.28;;;2.09;84.93
6343;BME280;3204;42.698;23.298;2023-01-28T04:15:48;94391.13;;;2.08;85.16
6343;BME280;3204;42.698;23.298;2023-01-28T04:18:13;94404.22;;;2.10;85.60
6343;BME280;3204;42.698;23.298;2023-01-28T04:20:39;94396.75;;;2.17;84.98
6343;BME280;3204;42.698;23.298;2023-01-28T04:23:05;94402.63;;;2.14;84.75
6343;BME280;3204;42.698;23.298;2023-01-28T04:25:32;94403.72;;;2.08;85.06
6343;BME280;3204;42.698;23.298;2023-01-28T04:27:58;94408.50;;;2.11;85.43
6343;BME280;3204;42.698;23.298;2023-01-28T04:30:23;94409.81;;;2.18;84.52
6343;BME280;3204;42.698;23.298;2023-01-28T04:32:49;94405.25;;;2.34;84.80
6343;BME280;3204;42.698;23.298;2023-01-28T04:35:15;94408.75;;;2.24;83.82
6343;BME280;3204;42.698;23.298;2023-01-28T04:37:41;94412.50;;;2.28;84.94
6343;BME280;3204;42.698;23.298;2023-01-28T04:40:08;94412.50;;;2.18;84.07
6343;BME280;3204;42.698;23.298;2023-01-28T04:42:34;94429.34;;;2.24;83.60
6343;BME280;3204;42.698;23.298;2023-01-28T04:44:59;94425.63;;;2.15;85.00
6343;BME280;3204;42.698;23.298;2023-01-28T04:47:25;94422.69;;;2.16;84.18
6343;BME280;3204;42.698;23.298;2023-01-28T04:49:50;94428.56;;;2.13;85.46
6343;BME280;3204;42.698;23.298;2023-01-28T04:52:16;94426.69;;;2.14;85.65
6343;BME280;3204;42.698;23.298;2023-01-28T04:54:41;94433.13;;;2.13;85.55
6343;BME280;3204;42.698;23.298;2023-01-28T04:57:06;94434.72;;;2.19;85.01
6343;BME280;3204;42.698;23.298;2023-01-28T04:59:32;94429.88;;;2.11;84.96
6343;BME280;3204;42.698;23.298;2023-01-28T05:01:58;94430.72;;;2.06;86.47
6343;BME280;3204;42.698;23.298;2023-01-28T05:04:24;94441.94;;;1.93;85.58
6343;BME280;3204;42.698;23.298;2023-01-28T05:06:49;94437.94;;;1.96;86.50
6343;BME280;3204;42.698;23.298;2023-01-28T05:09:15;94438.75;;;1.91;85.39
6343;BME280;3204;42.698;23.298;2023-01-28T05:11:40;94447.03;;;2.05;85.64
6343;BME280;3204;42.698;23.298;2023-01-28T05:14:06;94448.91;;;2.09;85.87
6343;BME280;3204;42.698;23.298;2023-01-28T05:16:31;94458.28;;;2.02;85.69
6343;BME280;3204;42.698;23.298;2023-01-28T05:18:59;94455.31;;;1.98;85.46
6343;BME280;3204;42.698;23.298;2023-01-28T05:21:25;94454.53;;;1.93;86.03
6343;BME280;3204;42.698;23.298;2023-01-28T05:23:50;94457.19;;;1.88;85.62
6343;BME280;3204;42.698;23.298;2023-01-28T05:26:16;94466.25;;;1.97;85.07
6343;BME280;3204;42.698;23.298;2023-01-28T05:28:41;94460.38;;;2.05;85.06
6343;BME280;3204;42.698;23.298;2023-01-28T05:31:07;94459.31;;;1.96;85.59
6343;BME280;3204;42.698;23.298;2023-01-28T05:33:33;94460.13;;;2.01;85.81
6343;BME280;3204;42.698;23.298;2023-01-28T05:35:58;94465.22;;;1.98;85.40
6343;BME280;3204;42.698;23.298;2023-01-28T05:38:24;94473.25;;;2.03;85.58
6343;BME280;3204;42.698;23.298;2023-01-28T05:40:49;94467.06;;;2.02;85.40
6343;BME280;3204;42.698;23.298;2023-01-28T05:43:15;94478.03;;;2.06;85.67
6343;BME280;3204;42.698;23.298;2023-01-28T05:45:40;94473.25;;;2.03;85.06
6343;BME280;3204;42.698;23.298;2023-01-28T05:48:06;94476.44;;;2.00;85.27
6343;BME280;3204;42.698;23.298;2023-01-28T05:50:32;94469.50;;;1.94;85.03
6343;BME280;3204;42.698;23.298;2023-01-28T05:52:58;94474.31;;;2.02;84.31
6343;BME280;3204;42.698;23.298;2023-01-28T05:55:23;94468.97;;;2.02;84.92
6343;BME280;3204;42.698;23.298;2023-01-28T05:57:49;94477.25;;;2.05;84.20
6343;BME280;3204;42.698;23.298;2023-01-28T06:00:15;94467.63;;;2.04;84.37
6343;BME280;3204;42.698;23.298;2023-01-28T06:02:41;94478.03;;;1.96;83.93
6343;BME280;3204;42.698;23.298;2023-01-28T06:05:08;94485.28;;;1.95;84.93
6343;BME280;3204;42.698;23.298;2023-01-28T06:07:33;94495.66;;;1.92;84.40
6343;BME280;3204;42.698;23.298;2023-01-28T06:09:59;94500.50;;;1.95;83.78
6343;BME280;3204;42.698;23.298;2023-01-28T06:12:24;94503.16;;;2.00;84.06
6343;BME280;3204;42.698;23.298;2023-01-28T06:14:50;94510.38;;;1.94;84.22
6343;BME280;3204;42.698;23.298;2023-01-28T06:17:15;94505.31;;;1.98;84.67
6343;BME280;3204;42.698;23.298;2023-01-28T06:19:41;94513.59;;;1.96;84.67
6343;BME280;3204;42.698;23.298;2023-01-28T06:22:06;94519.47;;;1.98;84.63
6343;BME280;3204;42.698;23.298;2023-01-28T06:24:32;94521.63;;;2.01;84.48
6343;BME280;3204;42.698;23.298;2023-01-28T06:26:58;94520.81;;;2.06;84.72
6343;BME280;3204;42.698;23.298;2023-01-28T06:29:23;94529.09;;;1.94;84.96
6343;BME280;3204;42.698;23.298;2023-01-28T06:31:49;94517.09;;;2.07;85.15
6343;BME280;3204;42.698;23.298;2023-01-28T06:34:15;94524.81;;;2.13;84.68
6343;BME280;3204;42.698;23.298;2023-01-28T06:36:40;94531.50;;;2.11;84.32
6343;BME280;3204;42.698;23.298;2023-01-28T06:39:06;94533.66;;;2.04;84.61
6343;BME280;3204;42.698;23.298;2023-01-28T06:41:32;94536.06;;;2.10;83.72
6343;BME280;3204;42.698;23.298;2023-01-28T06:43:57;94548.63;;;2.05;83.89
6343;BME280;3204;42.698;23.298;2023-01-28T06:46:23;94554.53;;;2.07;83.81
6343;BME280;3204;42.698;23.298;2023-01-28T06:48:49;94540.34;;;2.11;83.92
6343;BME280;3204;42.698;23.298;2023-01-28T06:51:14;94558.00;;;2.02;84.01
6343;BME280;3204;42.698;23.298;2023-01-28T06:53:40;94559.06;;;2.01;84.26
6343;BME280;3204;42.698;23.298;2023-01-28T06:56:06;94563.09;;;2.14;83.62
6343;BME280;3204;42.698;23.298;2023-01-28T06:58:33;94557.75;;;2.19;83.61
6343;BME280;3204;42.698;23.298;2023-01-28T07:00:58;94559.88;;;2.17;83.80
6343;BME280;3204;42.698;23.298;2023-01-28T07:03:24;94570.03;;;2.15;84.69
6343;BME280;3204;42.698;23.298;2023-01-28T07:05:49;94564.16;;;2.18;83.68
6343;BME280;3204;42.698;23.298;2023-01-28T07:08:15;94569.78;;;2.11;83.52
6343;BME280;3204;42.698;23.298;2023-01-28T07:10:40;94572.69;;;2.10;83.82
6343;BME280;3204;42.698;23.298;2023-01-28T07:13:06;94571.38;;;2.17;84.21
6343;BME280;3204;42.698;23.298;2023-01-28T07:15:32;94579.41;;;2.27;83.14
6343;BME280;3204;42.698;23.298;2023-01-28T07:17:57;94588.25;;;2.23;83.19
6343;BME280;3204;42.698;23.298;2023-01-28T07:20:22;94581.28;;;2.42;83.71
6343;BME280;3204;42.698;23.298;2023-01-28T07:22:48;94590.91;;;2.28;83.05
6343;BME280;3204;42.698;23.298;2023-01-28T07:25:14;94589.84;;;2.34;83.10
6343;BME280;3204;42.698;23.298;2023-01-28T07:27:45;94589.84;;;2.34;82.89
6343;BME280;3204;42.698;23.298;2023-01-28T07:30:11;94604.28;;;2.33;83.35
6343;BME280;3204;42.698;23.298;2023-01-28T07:32:36;94597.09;;;2.33;83.89
6343;BME280;3204;42.698;23.298;2023-01-28T07:35:02;94598.13;;;2.22;84.06
6343;BME280;3204;42.698;23.298;2023-01-28T07:37:27;94592.50;;;2.29;83.68
6343;BME280;3204;42.698;23.298;2023-01-28T07:39:53;94603.75;;;2.21;83.28
6343;BME280;3204;42.698;23.298;2023-01-28T07:42:18;94606.44;;;2.26;83.93
6343;BME280;3204;42.698;23.298;2023-01-28T07:44:44;94616.06;;;2.27;83.60
6343;BME280;3204;42.698;23.298;2023-01-28T07:47:10;94612.84;;;2.35;82.73
6343;BME280;3204;42.698;23.298;2023-01-28T07:49:35;94614.97;;;2.23;82.95
6343;BME280;3204;42.698;23.298;2023-01-28T07:52:04;94615.25;;;2.26;83.00
6343;BME280;3204;42.698;23.298;2023-01-28T07:54:29;94617.94;;;2.36;82.48
6343;BME280;3204;42.698;23.298;2023-01-28T07:56:55;94622.22;;;2.32;83.36
6343;BME280;3204;42.698;23.298;2023-01-28T07:59:21;94616.59;;;2.39;83.47
6343;BME280;3204;42.698;23.298;2023-01-28T08:01:47;94622.50;;;2.51;82.76
6343;BME280;3204;42.698;23.298;2023-01-28T08:04:13;94625.19;;;2.46;82.71
6343;BME280;3204;42.698;23.298;2023-01-28T08:06:38;94626.78;;;2.52;82.40
6343;BME280;3204;42.698;23.298;2023-01-28T08:09:04;94632.13;;;2.57;82.33
6343;BME280;3204;42.698;23.298;2023-01-28T08:11:33;94627.59;;;2.72;81.14
6343;BME280;3204;42.698;23.298;2023-01-28T08:13:58;94631.88;;;2.63;81.67
6343;BME280;3204;42.698;23.298;2023-01-28T08:16:24;94637.75;;;2.65;81.57
6343;BME280;3204;42.698;23.298;2023-01-28T08:18:51;94635.91;;;2.66;82.56
6343;BME280;3204;42.698;23.298;2023-01-28T08:21:17;94636.72;;;2.56;82.07
6343;BME280;3204;42.698;23.298;2023-01-28T08:23:42;94640.97;;;2.52;82.62
6343;BME280;3204;42.698;23.298;2023-01-28T08:26:08;94649.53;;;2.64;81.52
6343;BME280;3204;42.698;23.298;2023-01-28T08:28:33;94643.41;;;2.64;81.79
6343;BME280;3204;42.698;23.298;2023-01-28T08:30:59;94640.97;;;2.67;81.97
6343;BME280;3204;42.698;23.298;2023-01-28T08:33:25;94643.91;;;2.91;80.62
6343;BME280;3204;42.698;23.298;2023-01-28T08:35:51;94643.91;;;2.81;80.11
6343;BME280;3204;42.698;23.298;2023-01-28T08:38:17;94639.13;;;2.83;81.25
6343;BME280;3204;42.698;23.298;2023-01-28T08:40:45;94640.69;;;2.99;81.42
6343;BME280;3204;42.698;23.298;2023-01-28T08:43:10;94644.72;;;2.91;82.01
6343;BME280;3204;42.698;23.298;2023-01-28T08:45:38;94644.72;;;2.86;80.16
6343;BME280;3204;42.698;23.298;2023-01-28T08:48:05;94655.94;;;3.03;79.71
6343;BME280;3204;42.698;23.298;2023-01-28T08:50:33;94646.59;;;3.16;79.88
6343;BME280;3204;42.698;23.298;2023-01-28T08:53:01;94651.38;;;3.24;79.63
6343;BME280;3204;42.698;23.298;2023-01-28T08:55:27;94655.13;;;3.28;79.86
6343;BME280;3204;42.698;23.298;2023-01-28T08:57:53;94662.34;;;3.42;78.99
6343;BME280;3204;42.698;23.298;2023-01-28T09:00:20;94661.00;;;3.40;78.64
6343;BME280;3204;42.698;23.298;2023-01-28T09:02:46;94662.88;;;3.34;79.35
6343;BME280;3204;42.698;23.298;2023-01-28T09:05:12;94653.75;;;3.40;78.75
6343;BME280;3204;42.698;23.298;2023-01-28T09:07:39;94665.81;;;3.38;78.63
6343;BME280;3204;42.698;23.298;2023-01-28T09:10:05;94664.25;;;3.22;77.94
6343;BME280;3204;42.698;23.298;2023-01-28T09:12:31;94654.63;;;3.21;79.07
6343;BME280;3204;42.698;23.298;2023-01-28T09:14:56;94666.41;;;3.10;78.96
6343;BME280;3204;42.698;23.298;2023-01-28T09:17:22;94659.97;;;3.01;80.02
6343;BME280;3204;42.698;23.298;2023-01-28T09:19:48;94660.53;;;3.08;80.79
6343;BME280;3204;42.698;23.298;2023-01-28T09:22:13;94662.34;;;3.27;81.11
6343;BME280;3204;42.698;23.298;2023-01-28T09:24:39;94666.94;;;3.17;80.00
6343;BME280;3204;42.698;23.298;2023-01-28T09:27:05;94656.25;;;3.07;80.13
6343;BME280;3204;42.698;23.298;2023-01-28T09:29:32;94658.91;;;3.07;80.37
6343;BME280;3204;42.698;23.298;2023-01-28T09:31:58;94660.78;;;3.16;81.18
6343;BME280;3204;42.698;23.298;2023-01-28T09:34:23;94662.34;;;3.27;80.43
6343;BME280;3204;42.698;23.298;2023-01-28T09:36:49;94669.06;;;3.20;80.06
6343;BME280;3204;42.698;23.298;2023-01-28T09:39:15;94668.00;;;3.26;79.94
6343;BME280;3204;42.698;23.298;2023-01-28T09:44:41;94660.78;;;3.11;80.59
6343;BME280;3204;42.698;23.298;2023-01-28T09:47:31;94659.44;;;3.19;nan
6343;BME280;3204;42.698;23.298;2023-01-28T09:50:00;94659.16;;;3.15;80.90
6343;BME280;3204;42.698;23.298;2023-01-28T09:52:29;94655.97;;;3.13;81.57
6343;BME280;3204;42.698;23.298;2023-01-28T09:55:01;94651.94;;;3.06;80.60
6343;BME280;3204;42.698;23.298;2023-01-28T09:57:37;94658.38;;;2.85;81.65
6343;BME280;3204;42.698;23.298;2023-01-28T10:00:14;94654.63;;;2.81;82.10
6343;BME280;3204;42.698;23.298;2023-01-28T10:05:47;94657.81;;;2.58;82.22
6343;BME280;3204;42.698;23.298;2023-01-28T10:11:31;94657.56;;;2.54;83.39
6343;BME280;3204;42.698;23.298;2023-01-28T10:17:06;94652.22;;;2.69;83.18
6343;BME280;3204;42.698;23.298;2023-01-28T10:19:38;94646.06;;;2.69;83.51
6343;BME280;3204;42.698;23.298;2023-01-28T10:22:18;94645.53;;;2.82;83.48
6343;BME280;3204;42.698;23.298;2023-01-28T10:24:49;94655.69;;;2.95;83.67
6343;BME280;3204;42.698;23.298;2023-01-28T10:27:22;94655.44;;;3.01;81.98
6343;BME280;3204;42.698;23.298;2023-01-28T10:29:49;94651.94;;;2.81;81.48
6343;BME280;3204;42.698;23.298;2023-01-28T10:32:34;94652.47;;;2.73;83.51
6343;BME280;3204;42.698;23.298;2023-01-28T10:35:03;94646.34;;;2.72;84.26
6343;BME280;3204;42.698;23.298;2023-01-28T10:37:33;94650.88;;;2.77;84.54
6343;BME280;3204;42.698;23.298;2023-01-28T10:40:00;94648.47;;;2.90;83.33
6343;BME280;3204;42.698;23.298;2023-01-28T10:42:32;94643.66;;;2.92;83.81
6343;BME280;3204;42.698;23.298;2023-01-28T10:47:50;94650.88;;;3.17;81.28
6343;BME280;3204;42.698;23.298;2023-01-28T10:50:21;94644.16;;;3.24;82.08
6343;BME280;3204;42.698;23.298;2023-01-28T10:52:58;94653.50;;;3.37;82.09
6343;BME280;3204;42.698;23.298;2023-01-28T10:55:54;94642.50;;;3.43;81.89
6343;BME280;3204;42.698;23.298;2023-01-28T10:58:28;94643.25;;;3.64;80.94
6343;BME280;3204;42.698;23.298;2023-01-28T11:00:58;94640.84;;;3.57;80.94
6343;BME280;3204;42.698;23.298;2023-01-28T11:03:24;94644.88;;;3.55;80.15
6343;BME280;3204;42.698;23.298;2023-01-28T11:05:57;94645.13;;;3.58;81.69
6343;BME280;3204;42.698;23.298;2023-01-28T11:08:25;94652.34;;;3.63;79.95
6343;BME280;3204;42.698;23.298;2023-01-28T11:10:52;94644.06;;;3.54;79.51
6343;BME280;3204;42.698;23.298;2023-01-28T11:13:28;94642.22;;;3.55;80.40
6343;BME280;3204;42.698;23.298;2023-01-28T11:16:02;94648.59;;;3.69;79.63
6343;BME280;3204;42.698;23.298;2023-01-28T11:18:31;94641.13;;;3.56;81.05
6343;BME280;3204;42.698;23.298;2023-01-28T11:21:00;94647.56;;;3.60;80.75
6343;BME280;3204;42.698;23.298;2023-01-28T11:23:32;94645.09;;;3.68;80.27
6343;BME280;3204;42.698;23.298;2023-01-28T11:26:06;94648.28;;;3.80;78.67
6343;BME280;3204;42.698;23.298;2023-01-28T11:28:34;94645.03;;;3.88;78.91
6343;BME280;3204;42.698;23.298;2023-01-28T11:31:04;94639.94;;;3.92;78.99
6343;BME280;3204;42.698;23.298;2023-01-28T11:33:59;94634.03;;;3.90;78.28
6343;BME280;3204;42.698;23.298;2023-01-28T11:36:32;94640.66;;;4.02;79.10
6343;BME280;3204;42.698;23.298;2023-01-28T11:39:01;94638.78;;;4.08;78.40
6343;BME280;3204;42.698;23.298;2023-01-28T11:41:37;94637.06;;;4.27;77.65
6343;BME280;3204;42.698;23.298;2023-01-28T11:47:18;94636.53;;;4.25;76.34
6343;BME280;3204;42.698;23.298;2023-01-28T12:15:24;94636.69;;;4.43;76.69
6343;BME280;3204;42.698;23.298;2023-01-28T12:21:13;94637.31;;;4.30;75.51
6343;BME280;3204;42.698;23.298;2023-01-28T12:38:23;94652.00;;;4.38;75.11
6343;BME280;3204;42.698;23.298;2023-01-28T12:40:59;94655.25;;;4.40;75.48
6343;BME280;3204;42.698;23.298;2023-01-28T12:43:59;94657.63;;;4.46;75.13
6343;BME280;3204;42.698;23.298;2023-01-28T12:46:58;94648.63;;;4.17;75.10
6343;BME280;3204;42.698;23.298;2023-01-28T12:49:37;94657.31;;;4.04;75.84
6343;BME280;3204;42.698;23.298;2023-01-28T12:52:18;94659.72;;;4.01;76.64
6343;BME280;3204;42.698;23.298;2023-01-28T12:54:59;94662.06;;;4.12;76.80
6343;BME280;3204;42.698;23.298;2023-01-28T12:57:30;94658.03;;;4.25;76.59
6343;BME280;3204;42.698;23.298;2023-01-28T13:00:05;94665.03;;;4.16;76.80
6343;BME280;3204;42.698;23.298;2023-01-28T13:02:43;94660.44;;;4.16;76.42
6343;BME280;3204;42.698;23.298;2023-01-28T13:05:13;94661.78;;;4.19;75.72
6343;BME280;3204;42.698;23.298;2023-01-28T13:07:43;94669.84;;;4.14;76.50
6343;BME280;3204;42.698;23.298;2023-01-28T13:12:44;94667.41;;;4.27;76.54
6343;BME280;3204;42.698;23.298;2023-01-28T13:15:12;94659.06;;;4.24;76.84
6343;BME280;3204;42.698;23.298;2023-01-28T13:17:51;94678.16;;;4.17;76.44
6343;BME280;3204;42.698;23.298;2023-01-28T13:20:30;94679.47;;;4.20;74.99
6343;BME280;3204;42.698;23.298;2023-01-28T13:23:02;94681.44;;;4.09;75.54
6343;BME280;3204;42.698;23.298;2023-01-28T13:25:31;94675.00;;;4.05;76.83
6343;BME280;3204;42.698;23.298;2023-01-28T13:28:00;94685.97;;;4.09;76.54
6343;BME280;3204;42.698;23.298;2023-01-28T13:30:27;94686.25;;;4.07;76.55
6343;BME280;3204;42.698;23.298;2023-01-28T13:33:01;94687.56;;;4.15;77.30
6343;BME280;3204;42.698;23.298;2023-01-28T13:35:33;94686.72;;;4.24;76.63
6343;BME280;3204;42.698;23.298;2023-01-28T13:38:06;94687.25;;;4.21;76.68
6343;BME280;3204;42.698;23.298;2023-01-28T13:40:33;94684.31;;;4.23;76.51
6343;BME280;3204;42.698;23.298;2023-01-28T13:43:05;94687.69;;;3.85;76.53
6343;BME280;3204;42.698;23.298;2023-01-28T13:45:57;94696.19;;;4.12;76.65
6343;BME280;3204;42.698;23.298;2023-01-28T13:48:51;94695.59;;;4.15;76.88
6343;BME280;3204;42.698;23.298;2023-01-28T13:51:22;94696.22;;;4.02;77.04
6343;BME280;3204;42.698;23.298;2023-01-28T13:56:29;94709.06;;;4.05;77.04
6343;BME280;3204;42.698;23.298;2023-01-28T14:04:51;94710.47;;;3.87;77.03
6343;BME280;3204;42.698;23.298;2023-01-28T14:18:36;94727.94;;;3.80;76.40
6343;BME280;3204;42.698;23.298;2023-01-28T14:21:11;94736.00;;;3.75;77.79
6343;BME280;3204;42.698;23.298;2023-01-28T14:23:38;94740.28;;;3.66;77.74
6343;BME280;3204;42.698;23.298;2023-01-28T14:31:41;94747.56;;;3.35;78.77
6343;BME280;3204;42.698;23.298;2023-01-28T14:36:53;94743.03;;;3.36;79.46
6343;BME280;3204;42.698;23.298;2023-01-28T14:39:24;94741.94;;;3.27;78.48
6343;BME280;3204;42.698;23.298;2023-01-28T14:41:51;94758.03;;;3.42;77.87
6343;BME280;3204;42.698;23.298;2023-01-28T14:53:11;94753.19;;;2.99;79.65
6343;BME280;3204;42.698;23.298;2023-01-28T14:55:57;94758.56;;;3.19;79.89
6343;BME280;3204;42.698;23.298;2023-01-28T14:58:35;94766.59;;;3.14;78.67
6343;BME280;3204;42.698;23.298;2023-01-28T15:01:02;94770.59;;;3.16;79.17
6343;BME280;3204;42.698;23.298;2023-01-28T15:03:34;94769.78;;;3.06;79.49
6343;BME280;3204;42.698;23.298;2023-01-28T15:06:10;94769.53;;;2.97;80.25
6343;BME280;3204;42.698;23.298;2023-01-28T15:08:36;94769.25;;;2.99;79.41
6343;BME280;3204;42.698;23.298;2023-01-28T15:11:05;94768.19;;;3.05;79.15
6343;BME280;3204;42.698;23.298;2023-01-28T15:13:37;94771.69;;;3.05;79.24
6343;BME280;3204;42.698;23.298;2023-01-28T15:16:03;94771.66;;;2.90;80.15
6343;BME280;3204;42.698;23.298;2023-01-28T15:18:36;94781.06;;;2.98;78.53
6343;BME280;3204;42.698;23.298;2023-01-28T15:21:02;94766.56;;;2.94;80.23
6343;BME280;3204;42.698;23.298;2023-01-28T15:23:40;94773.53;;;2.85;80.21
6343;BME280;3204;42.698;23.298;2023-01-28T15:26:11;94777.53;;;2.87;80.91
6343;BME280;3204;42.698;23.298;2023-01-28T15:28:39;94775.97;;;3.06;79.30
6343;BME280;3204;42.698;23.298;2023-01-28T15:31:05;94775.69;;;2.93;80.00
6343;BME280;3204;42.698;23.298;2023-01-28T15:33:30;94787.44;;;2.92;79.72
6343;BME280;3204;42.698;23.298;2023-01-28T15:35:57;94785.84;;;2.91;80.24
6343;BME280;3204;42.698;23.298;2023-01-28T15:38:26;94787.16;;;2.83;79.78
6343;BME280;3204;42.698;23.298;2023-01-28T15:41:02;94784.22;;;2.80;79.68
6343;BME280;3204;42.698;23.298;2023-01-28T15:43:37;94782.63;;;2.74;80.32
6343;BME280;3204;42.698;23.298;2023-01-28T15:46:10;94794.94;;;2.85;79.65